Time;durP1;ratioP1;P1;durP2;ratioP2;P2;SDS_P1;SDS_P2;PMS_P1;PMS_P2;Temp;Humidity;BMP_temperature;BMP_pressure;BME280_temperature;BME280_humidity;BME280_pressure;Samples;Min_cycle;Max_cycle;Signal;HPM_P1;HPM_P2
2022/05/04 00:02:24;;;;;;;13.98;2.33;;;;;;;;;;5028278;28;20046;-80
2022/05/04 00:04:51;;;;;;;13.23;2.53;;;;;;;;;;5026719;28;20036;-80
2022/05/04 00:07:17;;;;;;;11.02;2.20;;;;;;;;;;5028168;28;20489;-79
2022/05/04 00:09:43;;;;;;;17.95;2.42;;;;;;;;;;5022813;28;20512;-82
2022/05/04 00:12:09;;;;;;;9.23;1.95;;;;;;;;;;5026340;28;20045;-80
2022/05/04 00:14:35;;;;;;;11.45;2.28;;;;;;;;;;5032433;28;20044;-80
2022/05/04 00:17:01;;;;;;;6.50;1.60;;;;;;;;;;5032834;28;20536;-80
2022/05/04 00:19:27;;;;;;;10.68;1.90;;;;;;;;;;5034687;28;20052;-79
2022/05/04 00:21:53;;;;;;;14.40;2.28;;;;;;;;;;5025767;28;20045;-79
2022/05/04 00:24:20;;;;;;;8.07;1.70;;;;;;;;;;5003930;28;20053;-81
2022/05/04 00:26:46;;;;;;;9.70;2.35;;;;;;;;;;5004231;28;20050;-80
2022/05/04 00:29:12;;;;;;;10.82;2.35;;;;;;;;;;5022438;28;20156;-82
2022/05/04 00:31:38;;;;;;;7.65;1.70;;;;;;;;;;5020382;28;20647;-80
2022/05/04 00:34:05;;;;;;;14.55;2.15;;;;;;;;;;5020678;28;20592;-80
2022/05/04 00:36:34;;;;;;;9.40;2.15;;;;;;;;;;5018926;28;20049;-81
2022/05/04 00:39:00;;;;;;;7.85;1.80;;;;;;;;;;5016113;28;20115;-81
2022/05/04 00:41:26;;;;;;;7.28;1.92;;;;;;;;;;5020559;28;20045;-83
2022/05/04 00:43:53;;;;;;;7.75;1.80;;;;;;;;;;5017760;28;20042;-80
2022/05/04 00:46:20;;;;;;;7.85;1.90;;;;;;;;;;5004952;28;20100;-80
2022/05/04 00:48:46;;;;;;;8.32;1.80;;;;;;;;;;5013809;28;20404;-81
2022/05/04 00:51:12;;;;;;;11.70;2.13;;;;;;;;;;5020685;28;20053;-81
2022/05/04 00:53:39;;;;;;;8.30;1.73;;;;;;;;;;4968223;28;20057;-81
2022/05/04 00:56:06;;;;;;;10.10;1.73;;;;;;;;;;5016533;28;20124;-81
2022/05/04 01:01:17;;;;;;;10.55;1.85;;;;;;;;;;5001653;28;20411;-81
2022/05/04 01:03:43;;;;;;;8.65;1.77;;;;;;;;;;5005916;28;20128;-83
2022/05/04 01:06:09;;;;;;;6.72;1.70;;;;;;;;;;4998873;28;20417;-82
2022/05/04 01:08:35;;;;;;;11.50;1.75;;;;;;;;;;5003597;28;20128;-82
2022/05/04 01:11:01;;;;;;;7.85;1.75;;;;;;;;;;5005847;28;20053;-93
2022/05/04 01:13:28;;;;;;;7.47;1.98;;;;;;;;;;5007332;28;20053;-91
2022/05/04 01:15:54;;;;;;;5.97;1.65;;;;;;;;;;5022308;28;20049;-91
2022/05/04 01:18:20;;;;;;;12.60;2.08;;;;;;;;;;5001905;28;20124;-91
2022/05/04 01:20:46;;;;;;;5.40;1.60;;;;;;;;;;5019715;28;20029;-93
2022/05/04 01:23:12;;;;;;;14.45;2.53;;;;;;;;;;5019330;28;20045;-91
2022/05/04 01:25:38;;;;;;;6.35;1.67;;;;;;;;;;5005468;28;20140;-90
2022/05/04 01:28:15;;;;;;;11.70;2.90;;;;;;;;;;5018248;28;20042;-88
2022/05/04 01:30:41;;;;;;;9.32;2.03;;;;;;;;;;5020720;28;20460;-84
2022/05/04 01:33:07;;;;;;;10.98;2.15;;;;;;;;;;5002318;28;20934;-84
2022/05/04 01:35:33;;;;;;;8.63;2.40;;;;;;;;;;5006712;28;20034;-89
2022/05/04 01:37:59;;;;;;;9.52;2.17;;;;;;;;;;5021171;28;20046;-82
2022/05/04 01:40:25;;;;;;;8.27;2.05;;;;;;;;;;5004207;28;20049;-81
2022/05/04 01:42:52;;;;;;;9.90;2.08;;;;;;;;;;4998753;28;20521;-92
2022/05/04 01:45:18;;;;;;;13.48;2.50;;;;;;;;;;5015599;28;20056;-81
2022/05/04 01:47:51;;;;;;;13.52;2.97;;;;;;;;;;5016846;28;20038;-93
2022/05/04 01:50:17;;;;;;;13.32;2.28;;;;;;;;;;5019094;28;20041;-91
2022/05/04 01:52:43;;;;;;;11.45;2.90;;;;;;;;;;5018068;28;20083;-82
2022/05/04 01:55:09;;;;;;;11.85;2.55;;;;;;;;;;5015409;28;20798;-82
2022/05/04 01:57:36;;;;;;;13.55;2.67;;;;;;;;;;5018343;28;20049;-86
2022/05/04 02:00:02;;;;;;;9.80;2.22;;;;;;;;;;5000758;28;20041;-80
2022/05/04 02:02:28;;;;;;;13.13;3.55;;;;;;;;;;4997306;28;20049;-80
2022/05/04 02:04:54;;;;;;;10.10;2.88;;;;;;;;;;5005524;28;20425;-84
2022/05/04 02:07:20;;;;;;;7.07;2.50;;;;;;;;;;5002061;28;20045;-80
2022/05/04 02:09:47;;;;;;;14.65;3.08;;;;;;;;;;5011231;28;20089;-82
2022/05/04 02:12:13;;;;;;;9.50;2.70;;;;;;;;;;5025158;28;20037;-80
2022/05/04 02:14:39;;;;;;;14.23;3.03;;;;;;;;;;4998235;28;20120;-80
2022/05/04 02:17:05;;;;;;;11.68;2.75;;;;;;;;;;5015049;28;20069;-79
2022/05/04 02:19:31;;;;;;;8.75;2.47;;;;;;;;;;4996615;28;20076;-79
2022/05/04 02:21:57;;;;;;;12.77;3.05;;;;;;;;;;4998176;28;20038;-79
2022/05/04 02:24:23;;;;;;;11.80;2.70;;;;;;;;;;5017032;28;20046;-80
2022/05/04 02:26:49;;;;;;;9.85;2.70;;;;;;;;;;5019587;28;20045;-79
2022/05/04 02:29:15;;;;;;;11.15;2.78;;;;;;;;;;4999548;28;20580;-80
2022/05/04 02:31:42;;;;;;;13.82;2.90;;;;;;;;;;5020274;28;20397;-82
2022/05/04 02:34:08;;;;;;;7.70;3.08;;;;;;;;;;5020786;28;20053;-80
2022/05/04 02:39:45;;;;;;;10.52;2.55;;;;;;;;;;5019428;28;20057;-81
2022/05/04 02:45:31;;;;;;;10.38;2.45;;;;;;;;;;5021186;28;20041;-82
2022/05/04 02:47:57;;;;;;;8.15;2.88;;;;;;;;;;5022576;28;20123;-82
2022/05/04 02:50:23;;;;;;;11.88;2.70;;;;;;;;;;5023450;28;20037;-81
2022/05/04 02:52:49;;;;;;;14.48;3.40;;;;;;;;;;5001286;28;20661;-83
2022/05/04 02:55:15;;;;;;;10.38;3.05;;;;;;;;;;5022446;28;20467;-81
2022/05/04 02:57:41;;;;;;;12.35;2.90;;;;;;;;;;5021466;28;20087;-82
2022/05/04 03:00:08;;;;;;;9.30;3.00;;;;;;;;;;5019925;28;20053;-82
2022/05/04 03:02:34;;;;;;;12.90;2.78;;;;;;;;;;5003663;28;20049;-83
2022/05/04 03:05:01;;;;;;;12.43;2.80;;;;;;;;;;5020429;28;20042;-83
2022/05/04 03:07:27;;;;;;;13.63;3.28;;;;;;;;;;5019931;28;20061;-84
2022/05/04 03:09:54;;;;;;;16.95;3.17;;;;;;;;;;5023061;28;20798;-82
2022/05/04 03:12:20;;;;;;;10.43;2.85;;;;;;;;;;4992227;28;20045;-82
2022/05/04 03:14:46;;;;;;;9.65;2.78;;;;;;;;;;5006591;28;20048;-82
2022/05/04 03:17:25;;;;;;;12.32;3.08;;;;;;;;;;5022660;28;20034;-81
2022/05/04 03:19:52;;;;;;;11.38;2.80;;;;;;;;;;5021120;28;20501;-81
2022/05/04 03:22:18;;;;;;;10.93;3.88;;;;;;;;;;5010291;28;20034;-82
2022/05/04 03:24:44;;;;;;;13.13;3.60;;;;;;;;;;5024983;28;20560;-81
2022/05/04 03:27:10;;;;;;;14.80;3.70;;;;;;;;;;5024428;28;20094;-81
2022/05/04 03:29:36;;;;;;;16.58;3.47;;;;;;;;;;5006142;28;20499;-81
2022/05/04 03:32:03;;;;;;;9.60;3.53;;;;;;;;;;5008139;28;20567;-81
2022/05/04 03:34:30;;;;;;;13.60;3.28;;;;;;;;;;5025775;28;20049;-81
2022/05/04 03:36:58;;;;;;;15.18;3.15;;;;;;;;;;5024113;28;20064;-81
2022/05/04 03:39:24;;;;;;;8.60;2.88;;;;;;;;;;5023790;28;20060;-81
2022/05/04 03:41:50;;;;;;;12.02;3.33;;;;;;;;;;5023899;28;20049;-82
2022/05/04 03:44:16;;;;;;;10.85;2.97;;;;;;;;;;4992162;28;20037;-81
2022/05/04 03:46:42;;;;;;;9.30;2.53;;;;;;;;;;5025325;28;20077;-82
2022/05/04 03:49:09;;;;;;;12.07;3.30;;;;;;;;;;5007784;28;20544;-82
2022/05/04 03:51:35;;;;;;;10.07;3.10;;;;;;;;;;5025813;28;20055;-81
2022/05/04 03:54:01;;;;;;;19.63;3.58;;;;;;;;;;5026133;28;20037;-81
2022/05/04 03:56:27;;;;;;;11.02;3.30;;;;;;;;;;5024615;28;20037;-81
2022/05/04 03:58:53;;;;;;;13.32;3.00;;;;;;;;;;5024370;28;20528;-82
2022/05/04 04:01:20;;;;;;;13.05;2.95;;;;;;;;;;5026476;28;20574;-81
2022/05/04 04:03:46;;;;;;;7.88;2.45;;;;;;;;;;4971120;28;20049;-80
2022/05/04 04:06:12;;;;;;;12.32;3.30;;;;;;;;;;5026088;28;20041;-81
2022/05/04 04:08:39;;;;;;;9.90;2.78;;;;;;;;;;5024383;28;20049;-81
2022/05/04 04:11:06;;;;;;;10.95;2.80;;;;;;;;;;5024092;28;20056;-82
2022/05/04 04:13:32;;;;;;;8.10;2.33;;;;;;;;;;5023111;28;20120;-81
2022/05/04 04:15:58;;;;;;;10.38;2.65;;;;;;;;;;4975920;28;20045;-81
2022/05/04 04:18:25;;;;;;;9.00;2.50;;;;;;;;;;5024142;28;20499;-81
2022/05/04 04:23:36;;;;;;;10.52;2.42;;;;;;;;;;5009757;28;20133;-82
2022/05/04 04:26:03;;;;;;;10.32;2.47;;;;;;;;;;5022674;28;20068;-81
2022/05/04 04:28:30;;;;;;;7.57;2.85;;;;;;;;;;5025614;28;20519;-81
2022/05/04 04:30:56;;;;;;;8.35;2.45;;;;;;;;;;5023621;28;20489;-81
2022/05/04 04:33:26;;;;;;;7.97;2.17;;;;;;;;;;5025367;28;20037;-80
2022/05/04 04:35:53;;;;;;;12.90;3.38;;;;;;;;;;5004805;28;20060;-82
2022/05/04 04:38:19;;;;;;;13.43;2.60;;;;;;;;;;5001323;28;20120;-82
2022/05/04 04:40:46;;;;;;;8.00;2.33;;;;;;;;;;5003934;28;20096;-80
2022/05/04 04:43:13;;;;;;;6.25;2.10;;;;;;;;;;5004442;28;20478;-81
2022/05/04 04:45:40;;;;;;;11.25;2.83;;;;;;;;;;5004405;28;20037;-81
2022/05/04 04:48:06;;;;;;;10.80;2.25;;;;;;;;;;5003181;28;20042;-82
2022/05/04 04:50:32;;;;;;;11.15;2.60;;;;;;;;;;5004995;28;20137;-81
2022/05/04 04:53:01;;;;;;;9.77;2.60;;;;;;;;;;5002512;28;20516;-84
2022/05/04 04:55:28;;;;;;;15.13;2.97;;;;;;;;;;5006584;28;20046;-82
2022/05/04 04:57:54;;;;;;;12.07;3.08;;;;;;;;;;4998698;28;20437;-80
2022/05/04 05:00:20;;;;;;;9.15;2.65;;;;;;;;;;5004851;28;20048;-81
2022/05/04 05:02:47;;;;;;;9.73;2.75;;;;;;;;;;5002940;28;20137;-81
2022/05/04 05:05:13;;;;;;;10.18;3.17;;;;;;;;;;5003700;28;20030;-81
2022/05/04 05:07:39;;;;;;;13.13;3.03;;;;;;;;;;5009524;28;20063;-82
2022/05/04 05:10:06;;;;;;;13.25;3.30;;;;;;;;;;5006605;28;20038;-82
2022/05/04 05:12:32;;;;;;;7.50;3.17;;;;;;;;;;5005775;28;20053;-83
2022/05/04 05:17:31;;;;;;;9.55;3.20;;;;;;;;;;4996804;23;20145;-83
2022/05/04 05:19:57;;;;;;;9.32;2.58;;;;;;;;;;4980199;28;20113;-81
2022/05/04 05:22:23;;;;;;;13.13;3.30;;;;;;;;;;5007466;28;20038;-82
2022/05/04 05:24:55;;;;;;;17.63;3.65;;;;;;;;;;5013931;28;20046;-82
2022/05/04 05:27:24;;;;;;;14.60;3.55;;;;;;;;;;5007263;28;20049;-83
2022/05/04 05:29:50;;;;;;;15.07;3.75;;;;;;;;;;4994999;28;20132;-83
2022/05/04 05:32:16;;;;;;;16.38;4.00;;;;;;;;;;5018269;28;20042;-83
2022/05/04 05:34:43;;;;;;;16.85;3.92;;;;;;;;;;5013563;28;20042;-83
2022/05/04 05:37:09;;;;;;;13.13;3.47;;;;;;;;;;5009668;28;20045;-82
2022/05/04 05:39:37;;;;;;;10.07;3.30;;;;;;;;;;4988763;28;20054;-83
2022/05/04 05:42:03;;;;;;;22.05;4.22;;;;;;;;;;4990681;28;20436;-83
2022/05/04 05:44:30;;;;;;;8.75;3.58;;;;;;;;;;4987930;28;20833;-83
2022/05/04 05:47:18;;;;;;;19.70;2.88;;;;;;;;;;5007264;28;20037;-83
2022/05/04 05:49:44;;;;;;;7.25;2.95;;;;;;;;;;5005612;28;20048;-84
2022/05/04 05:52:10;;;;;;;10.77;3.05;;;;;;;;;;4989551;28;20048;-83
2022/05/04 05:54:37;;;;;;;16.38;3.30;;;;;;;;;;5004823;28;20124;-84
2022/05/04 05:57:03;;;;;;;15.35;3.35;;;;;;;;;;5012703;28;20033;-83
2022/05/04 05:59:35;;;;;;;9.98;2.78;;;;;;;;;;5025453;28;20410;-82
2022/05/04 06:02:01;;;;;;;14.48;3.40;;;;;;;;;;4993715;28;20053;-82
2022/05/04 06:04:27;;;;;;;14.20;3.30;;;;;;;;;;5008909;28;20414;-83
2022/05/04 06:06:54;;;;;;;11.23;2.97;;;;;;;;;;5004216;28;20391;-82
2022/05/04 06:09:20;;;;;;;12.15;2.90;;;;;;;;;;5022222;28;20569;-82
2022/05/04 06:11:46;;;;;;;10.45;2.60;;;;;;;;;;4988283;28;20049;-82
2022/05/04 06:14:12;;;;;;;12.68;2.60;;;;;;;;;;4991487;28;20041;-82
2022/05/04 06:16:40;;;;;;;9.45;2.60;;;;;;;;;;5006747;28;20096;-81
2022/05/04 06:19:06;;;;;;;10.15;2.80;;;;;;;;;;5004466;28;20049;-82
2022/05/04 06:21:32;;;;;;;16.23;2.45;;;;;;;;;;5003844;28;20117;-83
2022/05/04 06:23:59;;;;;;;9.15;2.30;;;;;;;;;;5007402;28;20042;-82
2022/05/04 06:26:25;;;;;;;12.60;3.70;;;;;;;;;;5010508;28;20041;-82
2022/05/04 06:28:52;;;;;;;18.50;3.13;;;;;;;;;;5133083;22;20076;-82
2022/05/04 06:34:12;;;;;;;13.23;2.83;;;;;;;;;;5021609;28;20073;-84
2022/05/04 06:36:41;;;;;;;10.05;2.50;;;;;;;;;;5030870;28;20045;-83
2022/05/04 06:39:08;;;;;;;13.82;2.97;;;;;;;;;;5018280;28;20038;-84
2022/05/04 06:41:35;;;;;;;12.52;2.60;;;;;;;;;;5014718;28;20044;-84
2022/05/04 06:44:02;;;;;;;13.20;3.10;;;;;;;;;;5017428;28;20397;-83
2022/05/04 06:46:31;;;;;;;9.43;2.90;;;;;;;;;;5018312;28;20045;-83
2022/05/04 06:48:57;;;;;;;8.07;2.33;;;;;;;;;;5017957;28;20521;-83
2022/05/04 06:51:23;;;;;;;21.35;2.78;;;;;;;;;;5014674;28;20049;-84
2022/05/04 06:53:50;;;;;;;17.30;2.80;;;;;;;;;;5015297;28;20136;-84
2022/05/04 06:56:16;;;;;;;8.52;2.10;;;;;;;;;;5016701;28;20045;-83
2022/05/04 06:58:43;;;;;;;14.50;2.60;;;;;;;;;;5014908;28;20513;-83
2022/05/04 07:01:10;;;;;;;11.90;2.30;;;;;;;;;;5030874;28;20065;-83
2022/05/04 07:03:37;;;;;;;13.80;2.30;;;;;;;;;;5017521;28;20049;-84
2022/05/04 07:06:03;;;;;;;15.25;3.20;;;;;;;;;;5017513;28;20041;-83
2022/05/04 07:08:46;;;;;;;14.85;2.80;;;;;;;;;;5011968;28;20045;-86
2022/05/04 07:11:13;;;;;;;14.15;2.33;;;;;;;;;;5019591;28;20050;-82
2022/05/04 07:13:41;;;;;;;13.73;3.10;;;;;;;;;;5018573;28;20109;-82
2022/05/04 07:16:08;;;;;;;16.15;2.72;;;;;;;;;;5017997;28;20067;-82
2022/05/04 07:18:34;;;;;;;8.80;2.20;;;;;;;;;;5016868;28;20152;-81
2022/05/04 07:21:00;;;;;;;8.95;1.80;;;;;;;;;;5018152;28;20095;-82
2022/05/04 07:23:39;;;;;;;10.68;2.17;;;;;;;;;;5020567;28;20096;-86
2022/05/04 07:26:05;;;;;;;10.50;2.10;;;;;;;;;;5016050;28;20041;-81
2022/05/04 07:28:31;;;;;;;10.38;1.85;;;;;;;;;;5019660;28;20136;-83
2022/05/04 07:30:57;;;;;;;11.38;2.22;;;;;;;;;;5036567;28;20077;-82
2022/05/04 07:33:23;;;;;;;10.73;2.17;;;;;;;;;;5028537;28;20079;-83
2022/05/04 07:35:49;;;;;;;8.82;2.08;;;;;;;;;;5022410;28;20405;-85
2022/05/04 07:38:15;;;;;;;10.15;2.53;;;;;;;;;;5035568;28;20478;-84
2022/05/04 07:43:26;;;;;;;13.02;2.80;;;;;;;;;;5016147;28;20073;-83
2022/05/04 07:45:52;;;;;;;11.68;2.33;;;;;;;;;;5022206;28;20136;-83
2022/05/04 07:48:18;;;;;;;12.00;1.95;;;;;;;;;;4996915;28;20057;-84
2022/05/04 07:50:44;;;;;;;16.00;2.42;;;;;;;;;;5017242;28;20041;-84
2022/05/04 07:53:11;;;;;;;7.40;1.63;;;;;;;;;;5017374;28;20041;-83
2022/05/04 07:55:37;;;;;;;7.78;1.80;;;;;;;;;;5027130;28;20470;-83
2022/05/04 07:58:03;;;;;;;26.08;10.07;;;;;;;;;;5022878;28;20049;-91
2022/05/04 08:05:59;;;;;;;13.82;2.30;;;;;;;;;;5030001;28;20053;-84
2022/05/04 08:08:26;;;;;;;8.80;2.17;;;;;;;;;;5031394;28;20050;-86
2022/05/04 08:11:07;;;;;;;8.98;2.38;;;;;;;;;;5029960;28;20053;-85
2022/05/04 08:13:37;;;;;;;14.18;2.20;;;;;;;;;;5028376;28;20050;-83
2022/05/04 08:16:04;;;;;;;13.98;2.65;;;;;;;;;;5024571;28;20037;-83
2022/05/04 08:18:30;;;;;;;11.82;2.22;;;;;;;;;;5018758;28;20133;-87
2022/05/04 08:20:56;;;;;;;17.05;2.72;;;;;;;;;;5022675;28;20049;-82
2022/05/04 08:23:23;;;;;;;10.20;2.65;;;;;;;;;;5025166;28;20128;-84
2022/05/04 08:25:50;;;;;;;10.00;1.80;;;;;;;;;;5023988;28;20037;-83
2022/05/04 08:28:35;;;;;;;11.75;1.77;;;;;;;;;;5046924;28;20068;-86
2022/05/04 08:31:01;;;;;;;12.52;2.30;;;;;;;;;;5024560;28;20473;-85
2022/05/04 08:33:43;;;;;;;6.03;2.08;;;;;;;;;;5034756;28;20065;-86
2022/05/04 08:36:15;;;;;;;12.88;2.03;;;;;;;;;;5039765;28;20136;-88
2022/05/04 08:38:41;;;;;;;19.27;3.75;;;;;;;;;;5042842;28;20117;-85
2022/05/04 08:41:08;;;;;;;7.25;2.28;;;;;;;;;;5039897;28;20038;-83
2022/05/04 08:44:03;;;;;;;14.10;2.40;;;;;;;;;;5076323;22;20069;-84
2022/05/04 08:46:32;;;;;;;11.65;2.92;;;;;;;;;;5034016;28;20045;-85
2022/05/04 08:48:59;;;;;;;9.15;1.90;;;;;;;;;;5110337;22;20061;-84
2022/05/04 08:51:56;;;;;;;9.10;2.33;;;;;;;;;;4983958;28;20092;-84
2022/05/04 08:57:05;;;;;;;9.82;2.50;;;;;;;;;;5729850;22;20109;-86
2022/05/04 09:03:33;;;;;;;9.68;2.45;;;;;;;;;;4993516;28;20113;-86
2022/05/04 09:06:56;;;;;;;19.08;2.38;;;11.30;99.90;;;;;;4968768;28;20077;-86
2022/05/04 09:09:34;;;;;;;15.02;2.65;;;;;;;;;;5026879;23;20064;-86
2022/05/04 09:15:22;;;;;;;9.65;2.25;;;;;;;;;;5068257;28;20060;-86
2022/05/04 09:17:55;;;;;;;10.02;2.50;;;;;;;;;;5082142;28;20129;-86
2022/05/04 09:24:01;;;;;;;13.25;2.50;;;;;;;;;;5046742;22;20055;-85
2022/05/04 09:27:10;;;;;;;9.88;2.30;;;;;;;;;;5050162;28;20048;-85
2022/05/04 09:29:42;;;;;;;12.35;2.58;;;;;;;;;;5037152;28;20047;-87
2022/05/04 09:32:15;;;;;;;10.65;2.15;;;;;;;;;;5082419;28;20052;-87
2022/05/04 09:34:41;;;;;;;9.65;1.90;;;;;;;;;;5103324;22;20041;-86
2022/05/04 09:45:52;;;;;;;7.82;1.95;;;;;;;;;;5027263;28;20057;-85
2022/05/04 09:48:27;;;;;;;17.75;3.50;;;;;;;;;;5028577;28;20057;-85
2022/05/04 09:51:11;;;;;;;12.70;2.05;;;;;;;;;;5042863;28;20698;-87
2022/05/04 09:53:37;;;;;;;12.60;2.22;;;;;;;;;;5026439;28;20128;-86
2022/05/04 09:58:45;;;;;;;11.93;1.85;;;;;;;;;;5059399;22;20068;-85
2022/05/04 10:01:20;;;;;;;6.20;2.03;;;;;;;;;;5057678;28;20075;-86
2022/05/04 10:04:12;;;;;;;17.30;1.90;;;;;;;;;;5053272;28;20048;-85
2022/05/04 10:06:39;;;;;;;6.97;2.88;;;;;;;;;;5041204;28;20051;-84
2022/05/04 10:09:05;;;;;;;10.40;2.10;;;;;;;;;;5048094;28;20043;-85
2022/05/04 10:27:19;;;;;;;7.38;1.85;;;;;;;;;;5018099;28;20056;-85
2022/05/04 10:32:38;;;;;;;8.25;2.40;;;;;;;;;;5002592;28;20168;-84
2022/05/04 10:35:42;;;;;;;10.80;2.13;;;;;;;;;;5010864;28;20053;-85
2022/05/04 10:38:27;;;;;;;6.78;2.13;;;;;;;;;;4982249;28;20555;-85
2022/05/04 10:40:56;;;;;;;9.52;2.10;;;;;;;;;;5000661;28;20049;-85
2022/05/04 10:43:45;;;;;;;8.75;1.92;;;;;;;;;;5018671;28;20144;-85
2022/05/04 10:46:13;;;;;;;7.32;1.98;;;;;;;;;;5020280;28;20528;-86
2022/05/04 10:48:51;;;;;;;6.28;1.90;;;;;;;;;;5003515;28;20493;-86
2022/05/04 10:51:30;;;;;;;7.47;1.73;;;;;;;;;;5003075;28;20432;-86
2022/05/04 10:54:10;;;;;;;6.80;1.80;;;;;;;;;;5004660;28;20073;-83
2022/05/04 10:56:37;;;;;;;6.28;1.73;;;;;;;;;;5020347;28;20050;-84
2022/05/04 10:59:03;;;;;;;9.40;2.28;;;;;;;;;;4988457;28;20481;-84
2022/05/04 11:01:34;;;;;;;6.85;1.83;;;;;;;;;;5022951;28;20049;-83
2022/05/04 11:04:04;;;;;;;9.48;2.22;;;;;;;;;;5020945;28;20045;-86
2022/05/04 11:06:37;;;;;;;13.52;2.30;;;;;;;;;;4998034;28;20547;-86
2022/05/04 11:09:18;;;;;;;8.13;2.25;;;;;;;;;;5001235;28;20048;-85
2022/05/04 11:11:46;;;;;;;7.70;1.70;;;;;;;;;;5017572;28;20045;-84
2022/05/04 11:14:12;;;;;;;7.70;2.05;;;;;;;;;;5018875;28;20385;-84
2022/05/04 11:16:39;;;;;;;8.75;2.10;;;;;;;;;;5020539;28;20045;-85
2022/05/04 11:19:05;;;;;;;9.32;1.95;;;;;;;;;;4989999;28;20578;-84
2022/05/04 11:21:32;;;;;;;13.57;3.00;;;;;;;;;;5025461;28;20120;-84
2022/05/04 11:24:16;;;;;;;14.95;2.20;;;;;;;;;;5009834;28;20053;-86
2022/05/04 11:26:47;;;;;;;7.32;1.67;;;;;;;;;;4994730;28;20164;-85
2022/05/04 11:29:17;;;;;;;12.27;2.35;;;;;;;;;;5026515;28;20089;-85
2022/05/04 11:31:45;;;;;;;8.00;2.10;;;;;;;;;;4995346;28;20056;-86
2022/05/04 11:34:18;;;;;;;6.07;1.52;;;;;;;;;;5013728;28;20049;-85
2022/05/04 11:36:45;;;;;;;7.35;1.90;;;;;;;;;;5004013;28;20060;-86
2022/05/04 11:39:22;;;;;;;7.90;2.00;;;;;;;;;;5038862;28;20049;-85
2022/05/04 11:41:49;;;;;;;4.40;1.40;;;;;;;;;;4995067;28;20500;-87
2022/05/04 11:44:18;;;;;;;6.57;1.73;;;;;;;;;;5014967;28;20339;-85
2022/05/04 11:46:47;;;;;;;13.07;2.80;;;;;;;;;;5008489;28;20424;-86
2022/05/04 11:49:14;;;;;;;7.50;1.73;;;;;;;;;;5029279;28;20108;-85
2022/05/04 11:51:41;;;;;;;11.30;2.78;;;;;;;;;;5028489;28;20060;-85
2022/05/04 11:54:09;;;;;;;10.38;2.35;;;;;;;;;;4995900;28;20051;-87
2022/05/04 11:56:36;;;;;;;8.95;2.17;;;;;;;;;;5024847;28;20148;-85
2022/05/04 11:59:02;;;;;;;8.52;1.90;;;;;;;;;;4996167;28;20571;-86
2022/05/04 12:01:41;;;;;;;5.97;1.80;;;;;;;;;;5022326;28;20474;-84
2022/05/04 12:04:08;;;;;;;8.27;1.67;;;;;;;;;;5009890;28;20100;-86
2022/05/04 12:06:35;;;;;;;9.40;1.58;;;;;;;;;;5009655;28;20501;-86
2022/05/04 12:09:02;;;;;;;8.90;1.63;;;;;;;;;;5027304;28;20471;-86
2022/05/04 12:11:29;;;;;;;5.32;1.70;;;;;;;;;;5009438;28;20052;-86
2022/05/04 12:17:01;;;;;;;6.40;1.77;;;;;;;;;;5021429;28;20056;-87
2022/05/04 12:19:30;;;;;;;5.45;1.60;;;;;;;;;;5030815;28;20033;-86
2022/05/04 12:21:56;;;;;;;7.38;1.88;;;;;;;;;;5034509;28;20128;-85
2022/05/04 12:24:23;;;;;;;7.30;2.10;;;;;;;;;;5030816;28;20045;-85
2022/05/04 12:27:15;;;;;;;7.57;2.05;;;;;;;;;;5025635;28;20053;-85
2022/05/04 12:35:11;;;;;;;9.75;1.88;;;;;;;;;;5026350;28;20663;-85
2022/05/04 12:37:37;;;;;;;6.13;1.90;;;;;;;;;;5006625;28;20103;-86
2022/05/04 12:40:04;;;;;;;6.60;1.70;;;;;;;;;;5025613;28;20045;-85
2022/05/04 12:42:31;;;;;;;11.15;2.45;;;;;;;;;;5025166;28;20049;-84
2022/05/04 12:45:16;;;;;;;8.75;1.85;;;;;;;;;;5025595;28;20045;-85
2022/05/04 12:47:42;;;;;;;5.82;1.60;;;;;;;;;;5008057;28;20056;-85
2022/05/04 12:50:09;;;;;;;6.60;2.20;;;;;;;;;;5007620;28;20057;-85
2022/05/04 12:52:38;;;;;;;8.18;1.52;;;;;;;;;;4990716;28;20042;-86
2022/05/04 12:55:05;;;;;;;9.68;2.00;;;;;;;;;;5022427;28;20053;-86
2022/05/04 12:57:35;;;;;;;6.38;1.80;;;;;;;;;;5025472;28;20049;-86
2022/05/04 13:03:44;;;;;;;7.15;1.90;;;;;;;;;;5025904;28;20064;-87
2022/05/04 13:06:38;;;;;;;8.35;2.00;;;;;;;;;;5005663;28;20366;-86
2022/05/04 13:12:28;;;;;;;5.82;2.05;;;;;;;;;;4889627;29;20059;-86
2022/05/04 13:14:54;;;;;;;10.57;2.10;;;;;;;;;;4905110;29;20052;-89
2022/05/04 13:17:23;;;;;;;6.15;1.80;;;;;;;;;;4967308;28;20371;-85
2022/05/04 13:19:49;;;;;;;6.35;1.98;;;;;;;;;;4999054;28;20455;-85
2022/05/04 13:22:24;;;;;;;7.25;2.15;;;;;;;;;;4987128;28;20120;-87
2022/05/04 13:24:54;;;;;;;6.32;1.90;;;;;;;;;;4999726;28;20050;-88
2022/05/04 13:27:31;;;;;;;7.28;1.70;;;;;;;;;;4972165;28;20058;-86
2022/05/04 13:29:57;;;;;;;6.05;1.67;;;;;;;;;;4982829;28;20054;-86
2022/05/04 13:32:23;;;;;;;13.25;2.67;;;;;;;;;;4983160;28;20050;-86
2022/05/04 13:34:49;;;;;;;9.05;1.63;;;;;;;;;;4966510;28;20315;-86
2022/05/04 13:37:15;;;;;;;8.70;1.90;;;;;;;;;;4966580;28;20866;-86
2022/05/04 13:39:41;;;;;;;5.15;1.65;;;;;;;;;;4973673;28;20061;-85
2022/05/04 13:42:07;;;;;;;6.28;2.03;;;;;;;;;;5001925;28;20046;-87
2022/05/04 13:44:34;;;;;;;9.05;1.75;;;;;;;;;;5003474;28;20071;-86
2022/05/04 13:47:00;;;;;;;11.60;2.10;;;;;;;;;;4955016;28;20119;-85
2022/05/04 13:55:06;;;;;;;9.30;2.25;;;;;;;;;;5036838;28;20067;-85
2022/05/04 13:57:33;;;;;;;7.65;1.98;;;;;;;;;;5051227;28;20553;-86
2022/05/04 13:59:59;;;;;;;6.63;1.73;;;;;;;;;;5069356;28;20076;-85
2022/05/04 14:02:25;;;;;;;7.75;1.65;;;;;;;;;;5068771;28;20457;-86
2022/05/04 14:04:51;;;;;;;9.57;2.55;;;;;;;;;;5034183;28;20086;-86
2022/05/04 14:12:56;;;;;;;6.00;1.70;;;;;;;;;;5591001;22;20049;-86
2022/05/04 14:16:03;;;;;;;7.82;1.70;;;15.60;99.90;;;;;;5068713;22;20053;-85
2022/05/04 14:25:52;;;;;;;7.20;1.95;;;;;;;;;;5035670;28;20190;-85
2022/05/04 14:28:25;;;;;;;4.82;1.58;;;;;;;;;;5020766;28;20045;-84
2022/05/04 14:31:10;;;;;;;7.65;1.90;;;;;;;;;;5027939;28;20033;-86
2022/05/04 14:33:36;;;;;;;4.65;1.45;;;;;;;;;;5044055;28;20214;-85
2022/05/04 14:36:02;;;;;;;7.20;2.15;;;;;;;;;;5014479;28;20117;-84
2022/05/04 14:38:43;;;;;;;8.65;2.13;;;;;;;;;;5049897;28;20041;-85
2022/05/04 14:41:09;;;;;;;9.75;1.73;;;;;;;;;;5044006;28;20049;-85
2022/05/04 14:43:36;;;;;;;9.13;2.13;;;;;;;;;;5047104;28;20099;-85
2022/05/04 14:46:02;;;;;;;5.68;1.98;;;;;;;;;;5025157;28;20056;-86
2022/05/04 14:48:28;;;;;;;8.48;1.98;;;;;;;;;;5014044;28;20095;-85
2022/05/04 14:50:54;;;;;;;4.78;1.80;;;;;;;;;;5032264;28;20045;-85
2022/05/04 14:53:20;;;;;;;7.93;1.60;;;;;;;;;;5021793;28;20155;-84
2022/05/04 14:55:46;;;;;;;10.27;1.90;;;;;;;;;;5009580;28;20045;-84
2022/05/04 14:58:12;;;;;;;7.45;2.30;;;;;;;;;;5022217;28;20099;-84
2022/05/04 15:00:39;;;;;;;8.48;2.35;;;;;;;;;;5024256;28;20106;-84
2022/05/04 15:05:50;;;;;;;8.23;2.28;;;;;;;;;;5030214;28;20409;-84
2022/05/04 15:08:16;;;;;;;7.30;1.77;;;;;;;;;;5043060;28;20049;-85
2022/05/04 15:10:42;;;;;;;6.88;1.52;;;;;;;;;;5019487;28;20033;-85
2022/05/04 15:13:08;;;;;;;5.03;1.45;;;;;;;;;;5044217;28;20059;-85
2022/05/04 15:15:34;;;;;;;7.65;1.95;;;;;;;;;;5007591;28;20106;-84
2022/05/04 15:18:00;;;;;;;6.65;1.88;;;;;;;;;;5025787;28;20037;-84
2022/05/04 15:20:27;;;;;;;11.40;2.83;;;;;;;;;;5041831;28;20132;-84
2022/05/04 15:22:53;;;;;;;4.93;1.80;;;;;;;;;;5046504;28;20076;-85
2022/05/04 15:25:20;;;;;;;7.40;1.80;;;;;;;;;;4998587;28;20551;-85
2022/05/04 15:28:11;;;;;;;7.15;1.95;;;;;;;;;;5011717;28;20140;-86
2022/05/04 15:30:37;;;;;;;6.25;1.70;;;;;;;;;;5000771;28;20045;-86
2022/05/04 15:33:03;;;;;;;9.40;2.10;;;;;;;;;;5005637;28;20619;-85
2022/05/04 15:35:29;;;;;;;6.70;1.77;;;;;;;;;;5028180;28;20045;-85
2022/05/04 15:37:56;;;;;;;9.45;2.15;;;;;;;;;;5025835;28;20048;-84
2022/05/04 15:40:22;;;;;;;9.23;2.25;;;;;;;;;;5039014;28;20080;-85
2022/05/04 15:42:48;;;;;;;6.60;1.60;;;;;;;;;;5034663;28;20049;-85
2022/05/04 15:45:15;;;;;;;5.78;1.75;;;;;;;;;;5046059;28;20055;-85
2022/05/04 15:48:07;;;;;;;11.40;1.90;;;;;;;;;;5012762;28;20076;-85
2022/05/04 15:50:33;;;;;;;6.13;1.90;;;;;;;;;;5037696;28;20047;-85
2022/05/04 15:53:05;;;;;;;8.90;1.55;;;;;;;;;;5031105;28;20052;-85
2022/05/04 15:55:31;;;;;;;6.72;1.75;;;;;;;;;;5017640;28;20408;-85
2022/05/04 15:57:58;;;;;;;8.77;1.80;;;;;;;;;;5018720;28;20052;-86
2022/05/04 16:00:24;;;;;;;7.40;2.10;;;;;;;;;;5043696;28;20528;-85
2022/05/04 16:05:35;;;;;;;6.22;1.60;;;;;;;;;;5051780;28;20520;-85
2022/05/04 16:10:43;;;;;;;9.55;2.30;;;;;;;;;;5065787;22;20414;-85
2022/05/04 16:13:09;;;;;;;11.23;2.40;;;;;;;;;;5056511;28;20474;-85
2022/05/04 16:15:48;;;;;;;7.18;2.35;;;;;;;;;;5345208;23;20065;-85
2022/05/04 16:24:17;;;;;;;6.40;2.03;;;;;;;;;;5027344;28;20065;-87
2022/05/04 16:26:44;;;;;;;8.05;2.20;;;;;;;;;;5011590;28;20049;-86
2022/05/04 16:29:11;;;;;;;7.85;2.10;;;;;;;;;;5044761;28;20839;-87
2022/05/04 16:31:43;;;;;;;8.57;1.48;;;;;;;;;;5022619;28;20095;-86
2022/05/04 16:34:09;;;;;;;5.60;2.22;;;;;;;;;;5021507;28;20566;-86
2022/05/04 16:36:36;;;;;;;11.02;2.08;;;;;;;;;;5009266;28;20103;-86
2022/05/04 16:39:03;;;;;;;6.22;2.03;;;;;;;;;;5006125;28;20048;-87
2022/05/04 16:41:29;;;;;;;7.57;1.95;;;;;;;;;;5042731;28;20488;-85
2022/05/04 16:43:56;;;;;;;5.97;2.10;;;;;;;;;;5008734;28;20033;-85